createdAt,value
2017-06-16T00:00:50.569Z,508
2017-06-16T00:01:52.927Z,488
2017-06-16T00:02:55.293Z,412
2017-06-16T00:03:58.262Z,320
2017-06-16T00:05:00.632Z,244
2017-06-16T00:06:03.219Z,184
2017-06-16T00:07:05.577Z,156
2017-06-16T00:08:07.935Z,152
2017-06-16T00:09:10.956Z,112
2017-06-16T00:10:13.310Z,100
2017-06-16T00:11:15.674Z,80
2017-06-16T00:12:18.062Z,68
2017-06-16T00:13:20.584Z,56
2017-06-16T00:14:23.549Z,40
2017-06-16T00:15:25.927Z,28
2017-06-16T00:16:28.284Z,20
2017-06-16T00:17:30.663Z,20
2017-06-16T00:18:33.068Z,16
2017-06-16T00:19:37.938Z,8
2017-06-16T00:20:40.290Z,4
2017-06-16T00:21:42.643Z,4
2017-06-16T00:22:45.001Z,4
2017-06-16T00:23:47.374Z,4
2017-06-16T00:24:50.353Z,4
2017-06-16T00:25:52.703Z,0
2017-06-16T00:26:55.093Z,0
2017-06-16T00:27:58.671Z,0
2017-06-16T00:29:01.063Z,0
2017-06-16T00:30:04.026Z,0
2017-06-16T00:31:06.373Z,0
2017-06-16T00:32:08.732Z,0
2017-06-16T00:33:11.082Z,0
2017-06-16T00:34:13.444Z,0
2017-06-16T00:35:16.415Z,0
2017-06-16T00:36:18.773Z,0
2017-06-16T00:37:21.127Z,0
2017-06-16T00:38:23.491Z,0
2017-06-16T00:39:25.844Z,0
2017-06-16T00:40:28.797Z,0
2017-06-16T00:41:31.390Z,0
2017-06-16T00:42:33.758Z,0
2017-06-16T00:43:36.136Z,0
2017-06-16T00:44:38.488Z,0
2017-06-16T00:45:41.446Z,0
2017-06-16T00:46:43.810Z,0
2017-06-16T00:47:46.189Z,0
2017-06-16T00:48:48.545Z,0
2017-06-16T00:49:50.924Z,0
2017-06-16T00:50:53.899Z,0
2017-06-16T00:51:56.268Z,0
2017-06-16T00:52:58.663Z,0
2017-06-16T00:54:01.024Z,0
2017-06-16T00:55:03.399Z,0
2017-06-16T00:56:06.391Z,0
2017-06-16T00:57:08.723Z,0
2017-06-16T00:58:11.078Z,0
2017-06-16T00:59:13.457Z,0
2017-06-16T01:00:15.813Z,0
2017-06-16T01:01:18.770Z,0
2017-06-16T01:02:21.348Z,0
2017-06-16T01:03:23.702Z,0
2017-06-16T01:04:26.060Z,0
2017-06-16T01:05:28.427Z,0
2017-06-16T01:06:31.396Z,0
2017-06-16T01:07:33.751Z,0
2017-06-16T01:08:36.138Z,0
2017-06-16T01:09:38.499Z,0
2017-06-16T01:10:40.844Z,0
2017-06-16T01:11:43.829Z,0
2017-06-16T01:12:46.185Z,0
2017-06-16T01:13:48.544Z,0
2017-06-16T01:14:50.917Z,0
2017-06-16T01:15:53.282Z,0
2017-06-16T01:16:56.260Z,0
2017-06-16T01:17:58.627Z,0
2017-06-16T01:19:01.005Z,0
2017-06-16T01:20:03.378Z,0
2017-06-16T01:21:05.733Z,0
2017-06-16T01:22:08.937Z,0
2017-06-16T01:23:11.317Z,0
2017-06-16T01:24:13.888Z,0
2017-06-16T01:25:16.261Z,0
2017-06-16T01:26:18.650Z,0
2017-06-16T01:27:21.627Z,0
2017-06-16T01:28:23.985Z,0
2017-06-16T01:29:26.347Z,0
2017-06-16T01:30:28.735Z,0
2017-06-16T01:31:31.113Z,0
2017-06-16T01:32:34.104Z,0
2017-06-16T01:33:36.464Z,0
2017-06-16T01:34:38.845Z,0
2017-06-16T01:35:41.203Z,0
2017-06-16T01:36:43.565Z,0
2017-06-16T01:37:46.535Z,0
2017-06-16T01:38:48.896Z,0
2017-06-16T01:39:51.253Z,0
2017-06-16T01:40:53.624Z,0
2017-06-16T01:41:55.994Z,0
2017-06-16T01:42:59.013Z,0
2017-06-16T01:44:01.370Z,0
2017-06-16T01:45:03.750Z,0
2017-06-16T01:46:06.111Z,0
2017-06-16T01:47:08.471Z,0
2017-06-16T01:48:11.455Z,0
2017-06-16T01:49:14.024Z,0
2017-06-16T01:50:16.387Z,0
2017-06-16T01:51:18.777Z,0
2017-06-16T01:52:21.160Z,0
2017-06-16T01:53:24.134Z,0
2017-06-16T01:54:26.510Z,0
2017-06-16T01:55:28.899Z,0
2017-06-16T01:56:31.270Z,0
2017-06-16T01:57:33.656Z,0
2017-06-16T01:58:36.691Z,0
2017-06-16T01:59:39.046Z,0
2017-06-16T02:00:41.410Z,0
2017-06-16T02:01:43.764Z,0
2017-06-16T02:02:46.140Z,0
2017-06-16T02:03:49.180Z,0
2017-06-16T02:04:51.553Z,0
2017-06-16T02:05:54.138Z,0
2017-06-16T02:06:56.525Z,0
2017-06-16T02:07:58.919Z,0
2017-06-16T02:09:01.888Z,0
2017-06-16T02:10:04.480Z,0
2017-06-16T02:11:06.874Z,0
2017-06-16T02:12:09.238Z,0
2017-06-16T02:13:11.621Z,0
2017-06-16T02:14:14.586Z,0
2017-06-16T02:15:16.954Z,0
2017-06-16T02:16:19.339Z,0
2017-06-16T02:17:21.723Z,0
2017-06-16T02:18:24.074Z,0
2017-06-16T02:19:27.033Z,0
2017-06-16T02:20:29.393Z,0
2017-06-16T02:21:31.751Z,0
2017-06-16T02:22:34.148Z,0
2017-06-16T02:23:36.523Z,0
2017-06-16T02:24:39.497Z,0
2017-06-16T02:25:41.864Z,0
2017-06-16T02:26:44.263Z,0
2017-06-16T02:27:46.647Z,0
2017-06-16T02:28:49.017Z,0
2017-06-16T02:29:52.058Z,0
2017-06-16T02:30:54.410Z,0
2017-06-16T02:31:56.770Z,0
2017-06-16T02:32:59.141Z,0
2017-06-16T02:34:01.723Z,0
2017-06-16T02:35:04.718Z,0
2017-06-16T02:36:07.067Z,0
2017-06-16T02:37:09.444Z,0
2017-06-16T02:38:11.823Z,0
2017-06-16T02:39:14.188Z,0
2017-06-16T02:40:17.235Z,0
2017-06-16T02:41:19.620Z,0
2017-06-16T02:42:21.995Z,0
2017-06-16T02:43:24.583Z,0
2017-06-16T02:44:26.983Z,0
2017-06-16T02:45:31.922Z,0
2017-06-16T02:46:34.313Z,0
2017-06-16T02:47:36.681Z,0
2017-06-16T02:48:39.068Z,0
2017-06-16T02:49:41.439Z,0
2017-06-16T02:50:44.455Z,0
2017-06-16T02:51:46.846Z,0
2017-06-16T02:52:49.216Z,0
2017-06-16T02:53:51.595Z,0
2017-06-16T02:54:53.951Z,0
2017-06-16T02:55:56.903Z,0
2017-06-16T02:56:59.283Z,0
2017-06-16T02:58:01.644Z,0
2017-06-16T02:59:04.022Z,0
2017-06-16T03:00:06.373Z,0
2017-06-16T03:01:09.359Z,0
2017-06-16T03:02:11.719Z,0
2017-06-16T03:03:14.073Z,0
2017-06-16T03:04:16.470Z,0
2017-06-16T03:05:18.835Z,0
2017-06-16T03:06:21.820Z,0
2017-06-16T03:07:24.204Z,0
2017-06-16T03:08:26.563Z,0
2017-06-16T03:09:28.923Z,0
2017-06-16T03:10:31.304Z,0
2017-06-16T03:11:34.258Z,0
2017-06-16T03:12:36.620Z,0
2017-06-16T03:13:38.996Z,0
2017-06-16T03:14:41.357Z,0
2017-06-16T03:15:43.722Z,0
2017-06-16T03:16:46.747Z,0
2017-06-16T03:17:49.133Z,0
2017-06-16T03:18:51.501Z,0
2017-06-16T03:19:53.888Z,0
2017-06-16T03:20:56.286Z,0
2017-06-16T03:21:59.238Z,0
2017-06-16T03:23:01.613Z,0
2017-06-16T03:24:03.966Z,0
2017-06-16T03:25:06.319Z,0
2017-06-16T03:26:08.690Z,0
2017-06-16T03:27:11.651Z,0
2017-06-16T03:28:14.007Z,0
2017-06-16T03:29:16.365Z,0
2017-06-16T03:30:18.728Z,0
2017-06-16T03:31:21.116Z,0
2017-06-16T03:32:24.162Z,0
2017-06-16T03:33:26.517Z,0
2017-06-16T03:34:28.874Z,0
2017-06-16T03:35:31.229Z,0
2017-06-16T03:36:33.600Z,0
2017-06-16T03:37:36.572Z,0
2017-06-16T03:38:38.955Z,0
2017-06-16T03:39:41.345Z,0
2017-06-16T03:40:43.727Z,0
2017-06-16T03:41:46.117Z,0
2017-06-16T03:42:49.091Z,0
2017-06-16T03:43:51.462Z,0
2017-06-16T03:44:53.811Z,0
2017-06-16T03:45:56.181Z,0
2017-06-16T03:46:58.571Z,0
2017-06-16T03:48:01.527Z,0
2017-06-16T03:49:03.925Z,0
2017-06-16T03:50:06.275Z,0
2017-06-16T03:51:08.657Z,0
2017-06-16T03:52:11.009Z,0
2017-06-16T03:53:14.035Z,0
2017-06-16T03:54:16.426Z,0
2017-06-16T03:55:18.806Z,0
2017-06-16T03:56:21.199Z,0
2017-06-16T03:57:23.552Z,0
2017-06-16T03:58:26.516Z,0
2017-06-16T03:59:28.905Z,0
2017-06-16T04:00:31.292Z,0
2017-06-16T04:01:33.679Z,0
2017-06-16T04:02:36.063Z,0
2017-06-16T04:03:39.032Z,0
2017-06-16T04:04:41.416Z,0
2017-06-16T04:05:43.771Z,0
2017-06-16T04:06:46.141Z,0
2017-06-16T04:07:48.496Z,0
2017-06-16T04:08:51.447Z,0
2017-06-16T04:09:54.031Z,0
2017-06-16T04:10:56.392Z,0
2017-06-16T04:11:58.748Z,0
2017-06-16T04:13:01.130Z,0
2017-06-16T04:14:04.092Z,0
2017-06-16T04:15:06.443Z,0
2017-06-16T04:16:08.810Z,0
2017-06-16T04:17:11.186Z,0
2017-06-16T04:18:13.558Z,0
2017-06-16T04:19:16.517Z,0
2017-06-16T04:20:18.887Z,0
2017-06-16T04:21:21.271Z,0
2017-06-16T04:22:23.658Z,0
2017-06-16T04:23:26.050Z,0
2017-06-16T04:24:29.010Z,0
2017-06-16T04:25:31.356Z,0
2017-06-16T04:26:33.711Z,0
2017-06-16T04:27:36.068Z,0
2017-06-16T04:28:38.436Z,0
2017-06-16T04:29:41.402Z,0
2017-06-16T04:30:43.743Z,0
2017-06-16T04:31:46.121Z,0
2017-06-16T04:32:48.460Z,0
2017-06-16T04:33:50.819Z,0
2017-06-16T04:34:53.822Z,0
2017-06-16T04:35:56.169Z,0
2017-06-16T04:36:58.527Z,0
2017-06-16T04:38:00.876Z,0
2017-06-16T04:39:03.232Z,0
2017-06-16T04:40:06.192Z,0
2017-06-16T04:41:08.575Z,0
2017-06-16T04:42:10.937Z,0
2017-06-16T04:43:13.292Z,0
2017-06-16T04:44:15.652Z,0
2017-06-16T04:45:18.607Z,0
2017-06-16T04:46:20.980Z,0
2017-06-16T04:47:23.329Z,0
2017-06-16T04:48:25.684Z,0
2017-06-16T04:49:28.063Z,0
2017-06-16T04:50:31.017Z,0
2017-06-16T04:51:33.374Z,0
2017-06-16T04:52:35.727Z,0
2017-06-16T04:53:38.087Z,0
2017-06-16T04:54:40.452Z,0
2017-06-16T04:55:43.410Z,0
2017-06-16T04:56:45.759Z,0
2017-06-16T04:57:48.121Z,0
2017-06-16T04:58:50.467Z,0
2017-06-16T04:59:52.823Z,0
2017-06-16T05:00:55.787Z,0
2017-06-16T05:01:59.351Z,0
2017-06-16T05:03:01.730Z,0
2017-06-16T05:04:04.091Z,0
2017-06-16T05:05:06.440Z,0
2017-06-16T05:06:09.403Z,0
2017-06-16T05:07:11.758Z,0
2017-06-16T05:08:14.141Z,0
2017-06-16T05:09:16.532Z,0
2017-06-16T05:10:18.891Z,0
2017-06-16T05:11:21.846Z,0
2017-06-16T05:12:24.202Z,0
2017-06-16T05:13:26.564Z,0
2017-06-16T05:14:28.923Z,0
2017-06-16T05:15:31.307Z,0
2017-06-16T05:16:34.260Z,0
2017-06-16T05:17:36.619Z,0
2017-06-16T05:18:38.971Z,0
2017-06-16T05:19:41.318Z,0
2017-06-16T05:20:43.680Z,0
2017-06-16T05:21:46.646Z,0
2017-06-16T05:22:49.001Z,0
2017-06-16T05:23:51.359Z,0
2017-06-16T05:24:53.717Z,0
2017-06-16T05:25:56.081Z,0
2017-06-16T05:26:59.039Z,0
2017-06-16T05:28:01.600Z,0
2017-06-16T05:29:03.953Z,0
2017-06-16T05:30:06.309Z,0
2017-06-16T05:31:08.671Z,0
2017-06-16T05:32:11.633Z,0
2017-06-16T05:33:13.988Z,0
2017-06-16T05:34:16.354Z,0
2017-06-16T05:35:18.718Z,0
2017-06-16T05:36:21.067Z,0
2017-06-16T05:37:24.028Z,0
2017-06-16T05:38:26.387Z,0
2017-06-16T05:39:28.743Z,0
2017-06-16T05:40:31.100Z,0
2017-06-16T05:41:33.459Z,0
2017-06-16T05:42:38.322Z,0
2017-06-16T05:43:40.679Z,0
2017-06-16T05:44:43.046Z,0
2017-06-16T05:45:45.395Z,0
2017-06-16T05:46:47.763Z,0
2017-06-16T05:47:50.713Z,0
2017-06-16T05:48:53.087Z,0
2017-06-16T05:49:55.445Z,0
2017-06-16T05:50:57.796Z,0
2017-06-16T05:52:00.154Z,0
2017-06-16T05:53:03.109Z,0
2017-06-16T05:54:05.460Z,0
2017-06-16T05:55:07.813Z,0
2017-06-16T05:56:10.185Z,0
2017-06-16T05:57:12.529Z,0
2017-06-16T05:58:15.500Z,0
2017-06-16T05:59:17.855Z,0
2017-06-16T06:00:20.206Z,0
2017-06-16T06:01:22.551Z,0
2017-06-16T06:02:24.914Z,0
2017-06-16T06:03:28.097Z,0
2017-06-16T06:04:30.454Z,0
2017-06-16T06:05:32.813Z,0
2017-06-16T06:06:35.372Z,0
2017-06-16T06:07:37.733Z,0
2017-06-16T06:08:40.692Z,0
2017-06-16T06:09:43.044Z,0
2017-06-16T06:10:45.401Z,0
2017-06-16T06:11:47.765Z,0
2017-06-16T06:12:50.115Z,0
2017-06-16T06:13:53.066Z,0
2017-06-16T06:14:55.433Z,0
2017-06-16T06:15:57.780Z,0
2017-06-16T06:17:00.132Z,0
2017-06-16T06:18:02.484Z,0
2017-06-16T06:19:05.444Z,0
2017-06-16T06:20:07.800Z,0
2017-06-16T06:21:10.165Z,0
2017-06-16T06:22:12.510Z,0
2017-06-16T06:23:14.881Z,0
2017-06-16T06:24:17.823Z,0
2017-06-16T06:25:20.176Z,0
2017-06-16T06:26:22.525Z,0
2017-06-16T06:27:24.876Z,0
2017-06-16T06:28:27.241Z,0
2017-06-16T06:29:30.192Z,0
2017-06-16T06:30:32.550Z,0
2017-06-16T06:31:34.897Z,0
2017-06-16T06:32:37.248Z,0
2017-06-16T06:33:39.596Z,0
2017-06-16T06:34:42.558Z,0
2017-06-16T06:35:44.909Z,0
2017-06-16T06:36:47.277Z,0
2017-06-16T06:37:49.615Z,0
2017-06-16T06:38:51.978Z,0
2017-06-16T06:39:54.935Z,0
2017-06-16T06:40:57.289Z,0
2017-06-16T06:41:59.649Z,0
2017-06-16T06:43:02.001Z,0
2017-06-16T06:44:04.355Z,0
2017-06-16T06:45:07.318Z,0
2017-06-16T06:46:09.670Z,0
2017-06-16T06:47:12.027Z,0
2017-06-16T06:48:14.372Z,0
2017-06-16T06:49:16.733Z,0
2017-06-16T06:50:19.689Z,0
2017-06-16T06:51:22.067Z,0
2017-06-16T06:52:24.414Z,0
2017-06-16T06:53:26.764Z,0
2017-06-16T06:54:29.127Z,0
2017-06-16T06:55:32.080Z,0
2017-06-16T06:56:34.436Z,0
2017-06-16T06:57:36.795Z,0
2017-06-16T06:58:39.145Z,0
2017-06-16T06:59:41.498Z,0
2017-06-16T07:00:44.468Z,0
2017-06-16T07:01:46.818Z,0
2017-06-16T07:02:49.169Z,0
2017-06-16T07:03:51.721Z,0
2017-06-16T07:04:54.275Z,0
2017-06-16T07:05:57.235Z,0
2017-06-16T07:06:59.588Z,0
2017-06-16T07:08:01.949Z,0
2017-06-16T07:09:04.298Z,0
2017-06-16T07:10:06.682Z,0
2017-06-16T07:11:09.588Z,0
2017-06-16T07:12:11.953Z,0
2017-06-16T07:13:14.299Z,0
2017-06-16T07:14:16.684Z,0
2017-06-16T07:15:19.035Z,0
2017-06-16T07:16:21.994Z,0
2017-06-16T07:17:24.355Z,0
2017-06-16T07:18:26.701Z,0
2017-06-16T07:19:29.055Z,0
2017-06-16T07:20:31.412Z,0
2017-06-16T07:21:34.330Z,0
2017-06-16T07:22:36.690Z,0
2017-06-16T07:23:39.051Z,0
2017-06-16T07:24:41.401Z,0
2017-06-16T07:25:43.761Z,0
2017-06-16T07:26:46.712Z,0
2017-06-16T07:27:49.083Z,0
2017-06-16T07:28:51.457Z,0
2017-06-16T07:29:53.790Z,0
2017-06-16T07:30:56.152Z,0
2017-06-16T07:31:59.055Z,0
2017-06-16T07:33:01.412Z,0
2017-06-16T07:34:03.772Z,0
2017-06-16T07:35:06.121Z,0
2017-06-16T07:36:08.482Z,0
2017-06-16T07:37:11.439Z,0
2017-06-16T07:38:13.788Z,0
2017-06-16T07:39:16.152Z,0
2017-06-16T07:40:18.507Z,0
2017-06-16T07:41:20.869Z,0
2017-06-16T07:42:23.832Z,0
2017-06-16T07:43:26.189Z,0
2017-06-16T07:44:28.537Z,0
2017-06-16T07:45:30.894Z,0
2017-06-16T07:46:33.250Z,0
2017-06-16T07:47:36.208Z,0
2017-06-16T07:48:38.562Z,0
2017-06-16T07:49:40.919Z,0
2017-06-16T07:50:43.277Z,0
2017-06-16T07:51:45.628Z,0
2017-06-16T07:52:48.585Z,0
2017-06-16T07:53:50.949Z,0
2017-06-16T07:54:53.295Z,0
2017-06-16T07:55:55.645Z,0
2017-06-16T07:56:57.997Z,0
2017-06-16T07:58:00.958Z,0
2017-06-16T07:59:03.317Z,0
2017-06-16T08:00:05.667Z,0
2017-06-16T08:01:08.025Z,0
2017-06-16T08:02:10.377Z,0
2017-06-16T08:03:13.343Z,0
2017-06-16T08:04:15.696Z,0
2017-06-16T08:05:18.046Z,0
2017-06-16T08:06:20.403Z,0
2017-06-16T08:07:22.762Z,0
2017-06-16T08:08:25.734Z,0
2017-06-16T08:09:28.077Z,0
2017-06-16T08:10:30.434Z,0
2017-06-16T08:11:32.801Z,0
2017-06-16T08:12:35.154Z,0
2017-06-16T08:13:38.119Z,0
2017-06-16T08:14:40.467Z,0
2017-06-16T08:15:42.825Z,0
2017-06-16T08:16:45.175Z,0
2017-06-16T08:17:47.529Z,0
2017-06-16T08:18:50.483Z,0
2017-06-16T08:19:52.844Z,0
2017-06-16T08:20:55.197Z,0
2017-06-16T08:21:57.552Z,0
2017-06-16T08:22:59.907Z,0
2017-06-16T08:24:02.862Z,0
2017-06-16T08:25:05.211Z,0
2017-06-16T08:26:07.562Z,0
2017-06-16T08:27:09.914Z,0
2017-06-16T08:28:12.269Z,0
2017-06-16T08:29:15.234Z,0
2017-06-16T08:30:17.585Z,0
2017-06-16T08:31:19.959Z,0
2017-06-16T08:32:22.311Z,0
2017-06-16T08:33:24.676Z,0
2017-06-16T08:34:27.634Z,0
2017-06-16T08:35:29.983Z,0
2017-06-16T08:36:32.346Z,0
2017-06-16T08:37:34.700Z,0
2017-06-16T08:38:37.062Z,0
2017-06-16T08:39:40.013Z,0
2017-06-16T08:40:42.375Z,0
2017-06-16T08:41:44.720Z,0
2017-06-16T08:42:47.080Z,0
2017-06-16T08:43:49.445Z,0
2017-06-16T08:44:52.390Z,0
2017-06-16T08:45:54.738Z,0
2017-06-16T08:46:57.096Z,0
2017-06-16T08:47:59.449Z,0
2017-06-16T08:49:01.811Z,0
2017-06-16T08:50:04.771Z,0
2017-06-16T08:51:07.128Z,0
2017-06-16T08:52:09.480Z,0
2017-06-16T08:53:11.843Z,0
2017-06-16T08:54:14.204Z,0
2017-06-16T08:55:17.151Z,0
2017-06-16T08:56:19.513Z,0
2017-06-16T08:57:21.864Z,0
2017-06-16T08:58:24.220Z,0
2017-06-16T08:59:26.578Z,0
2017-06-16T09:00:29.635Z,0
2017-06-16T09:01:32.025Z,0
2017-06-16T09:02:34.336Z,0
2017-06-16T09:03:36.688Z,0
2017-06-16T09:04:39.050Z,0
2017-06-16T09:05:42.008Z,0
2017-06-16T09:06:44.367Z,0
2017-06-16T09:07:46.718Z,0
2017-06-16T09:08:49.278Z,0
2017-06-16T09:09:51.639Z,0
2017-06-16T09:10:54.691Z,0
2017-06-16T09:11:57.050Z,0
2017-06-16T09:12:59.416Z,0
2017-06-16T09:14:01.768Z,0
2017-06-16T09:15:04.129Z,0
2017-06-16T09:16:07.177Z,0
2017-06-16T09:17:09.537Z,0
2017-06-16T09:18:11.891Z,0
2017-06-16T09:19:14.248Z,0
2017-06-16T09:20:16.604Z,0
2017-06-16T09:21:19.559Z,0
2017-06-16T09:22:21.915Z,0
2017-06-16T09:23:24.276Z,0
2017-06-16T09:24:26.625Z,0
2017-06-16T09:25:28.977Z,0
2017-06-16T09:26:31.928Z,0
2017-06-16T09:27:34.481Z,0
2017-06-16T09:28:36.841Z,0
2017-06-16T09:29:39.206Z,0
2017-06-16T09:30:41.561Z,0
2017-06-16T09:31:44.522Z,0
2017-06-16T09:32:46.870Z,0
2017-06-16T09:33:49.222Z,0
2017-06-16T09:34:51.582Z,0
2017-06-16T09:35:53.935Z,0
2017-06-16T09:36:56.893Z,0
2017-06-16T09:37:59.254Z,0
2017-06-16T09:39:01.614Z,0
2017-06-16T09:40:03.973Z,0
2017-06-16T09:41:06.333Z,0
2017-06-16T09:42:09.300Z,0
2017-06-16T09:43:11.651Z,0
2017-06-16T09:44:14.009Z,0
2017-06-16T09:45:16.362Z,0
2017-06-16T09:46:18.720Z,0
2017-06-16T09:47:21.681Z,0
2017-06-16T09:48:24.035Z,0
2017-06-16T09:49:26.396Z,0
2017-06-16T09:50:28.742Z,0
2017-06-16T09:51:31.097Z,0
2017-06-16T09:52:34.160Z,0
2017-06-16T09:53:36.511Z,0
2017-06-16T09:54:38.864Z,0
2017-06-16T09:55:41.217Z,0
2017-06-16T09:56:43.584Z,0
2017-06-16T09:57:46.536Z,0
2017-06-16T09:58:48.905Z,0
2017-06-16T09:59:51.257Z,0
2017-06-16T10:00:53.816Z,0
2017-06-16T10:01:56.168Z,0
2017-06-16T10:02:59.121Z,0
2017-06-16T10:04:01.482Z,0
2017-06-16T10:05:03.826Z,0
2017-06-16T10:06:06.191Z,0
2017-06-16T10:07:08.557Z,0
2017-06-16T10:08:11.466Z,0
2017-06-16T10:09:13.817Z,0
2017-06-16T10:10:16.171Z,0
2017-06-16T10:11:18.523Z,0
2017-06-16T10:12:20.874Z,0
2017-06-16T10:13:23.834Z,0
2017-06-16T10:14:26.198Z,0
2017-06-16T10:15:28.556Z,0
2017-06-16T10:16:30.903Z,0
2017-06-16T10:17:33.269Z,0
2017-06-16T10:18:36.232Z,0
2017-06-16T10:19:38.591Z,0
2017-06-16T10:20:40.945Z,0
2017-06-16T10:21:43.306Z,0
2017-06-16T10:22:45.655Z,0
2017-06-16T10:23:48.622Z,0
2017-06-16T10:24:50.984Z,0
2017-06-16T10:25:53.343Z,0
2017-06-16T10:26:55.700Z,0
2017-06-16T10:27:58.056Z,0
2017-06-16T10:29:01.012Z,0
2017-06-16T10:30:03.365Z,0
2017-06-16T10:31:05.717Z,0
2017-06-16T10:32:08.073Z,0
2017-06-16T10:33:10.435Z,0
2017-06-16T10:34:13.595Z,0
2017-06-16T10:35:15.955Z,0
2017-06-16T10:36:18.305Z,0
2017-06-16T10:37:20.668Z,0
2017-06-16T10:38:23.020Z,0
2017-06-16T10:39:25.974Z,0
2017-06-16T10:40:28.328Z,0
2017-06-16T10:41:30.692Z,0
2017-06-16T10:42:33.051Z,0
2017-06-16T10:43:35.416Z,0
2017-06-16T10:44:38.364Z,0
2017-06-16T10:45:40.727Z,0
2017-06-16T10:46:43.070Z,0
2017-06-16T10:47:45.426Z,0
2017-06-16T10:48:47.783Z,0
2017-06-16T10:49:50.739Z,0
2017-06-16T10:50:53.094Z,0
2017-06-16T10:51:55.450Z,0
2017-06-16T10:52:57.801Z,0
2017-06-16T10:54:00.162Z,0
2017-06-16T10:55:03.109Z,0
2017-06-16T10:56:06.662Z,0
2017-06-16T10:57:09.019Z,0
2017-06-16T10:58:11.381Z,0
2017-06-16T10:59:13.736Z,0
2017-06-16T11:00:16.689Z,0
2017-06-16T11:01:19.048Z,0
2017-06-16T11:02:21.403Z,0
2017-06-16T11:03:23.768Z,0
2017-06-16T11:04:26.118Z,0
2017-06-16T11:05:29.079Z,0
2017-06-16T11:06:31.428Z,0
2017-06-16T11:07:33.781Z,0
2017-06-16T11:08:36.136Z,0
2017-06-16T11:09:38.496Z,0
2017-06-16T11:10:41.450Z,0
2017-06-16T11:11:43.810Z,0
2017-06-16T11:12:46.155Z,0
2017-06-16T11:13:48.512Z,0
2017-06-16T11:14:50.874Z,0
2017-06-16T11:15:53.814Z,0
2017-06-16T11:16:56.170Z,0
2017-06-16T11:17:58.530Z,0
2017-06-16T11:19:00.885Z,0
2017-06-16T11:20:03.238Z,0
2017-06-16T11:21:08.099Z,0
2017-06-16T11:22:10.457Z,0
2017-06-16T11:23:12.819Z,0
2017-06-16T11:24:15.168Z,0
2017-06-16T11:25:17.530Z,0
2017-06-16T11:26:20.494Z,0
2017-06-16T11:27:22.845Z,0
2017-06-16T11:28:25.206Z,0
2017-06-16T11:29:27.560Z,0
2017-06-16T11:30:29.917Z,0
2017-06-16T11:31:32.874Z,0
2017-06-16T11:32:35.233Z,0
2017-06-16T11:33:37.586Z,0
2017-06-16T11:34:39.942Z,4
2017-06-16T11:35:42.297Z,4
2017-06-16T11:36:45.206Z,4
2017-06-16T11:37:47.571Z,4
2017-06-16T11:38:49.940Z,8
2017-06-16T11:39:52.296Z,8
2017-06-16T11:40:54.657Z,12
2017-06-16T11:41:57.613Z,20
2017-06-16T11:42:59.972Z,24
2017-06-16T11:44:02.327Z,36
2017-06-16T11:45:04.692Z,44
2017-06-16T11:46:07.052Z,56
2017-06-16T11:47:10.010Z,68
2017-06-16T11:48:12.373Z,88
2017-06-16T11:49:14.725Z,100
2017-06-16T11:50:17.084Z,116
2017-06-16T11:51:19.444Z,160
2017-06-16T11:52:22.406Z,188
2017-06-16T11:53:24.769Z,216
2017-06-16T11:54:27.145Z,256
2017-06-16T11:55:29.496Z,280
2017-06-16T11:56:31.849Z,328
2017-06-16T11:57:34.822Z,372
2017-06-16T11:58:37.170Z,400
2017-06-16T11:59:39.531Z,464
2017-06-16T12:00:42.097Z,528
2017-06-16T12:01:44.450Z,620
2017-06-16T12:02:47.408Z,764
2017-06-16T12:03:49.772Z,820
2017-06-16T12:04:52.132Z,880
2017-06-16T12:05:54.488Z,992
2017-06-16T12:06:56.853Z,1096
2017-06-16T12:07:59.813Z,1124
2017-06-16T12:09:02.176Z,1228
2017-06-16T12:10:04.540Z,1336
2017-06-16T12:11:06.907Z,1388
2017-06-16T12:12:09.253Z,1564
2017-06-16T12:13:12.220Z,1696
2017-06-16T12:14:14.570Z,1640
2017-06-16T12:15:16.952Z,1744
2017-06-16T12:16:19.292Z,2012
2017-06-16T12:17:21.654Z,2096
2017-06-16T12:18:24.769Z,2300
2017-06-16T12:19:27.125Z,2664
2017-06-16T12:20:29.484Z,2788
2017-06-16T12:21:31.850Z,2904
2017-06-16T12:22:34.220Z,3072
2017-06-16T12:23:37.175Z,3336
2017-06-16T12:24:39.532Z,3468
2017-06-16T12:25:41.926Z,3476
2017-06-16T12:26:44.266Z,3580
2017-06-16T12:27:46.630Z,3676
2017-06-16T12:28:49.545Z,3888
2017-06-16T12:29:51.908Z,4244
2017-06-16T12:30:54.257Z,4876
2017-06-16T12:31:56.611Z,4764
2017-06-16T12:32:58.979Z,4952
2017-06-16T12:34:01.941Z,5228
2017-06-16T12:35:04.300Z,5292
2017-06-16T12:36:06.658Z,5248
2017-06-16T12:37:09.023Z,5152
2017-06-16T12:38:11.393Z,5652
2017-06-16T12:39:14.346Z,5776
2017-06-16T12:40:16.706Z,5812
2017-06-16T12:41:19.074Z,6036
2017-06-16T12:42:21.429Z,6520
2017-06-16T12:43:23.801Z,7168
2017-06-16T12:44:26.759Z,7740
2017-06-16T12:45:29.115Z,7956
2017-06-16T12:46:31.478Z,8348
2017-06-16T12:47:33.841Z,8472
2017-06-16T12:48:36.201Z,8760
2017-06-16T12:49:39.162Z,9172
2017-06-16T12:50:41.528Z,9064
2017-06-16T12:51:43.885Z,8620
2017-06-16T12:52:46.249Z,8156
2017-06-16T12:53:48.604Z,8848
2017-06-16T12:54:51.565Z,9928
2017-06-16T12:55:53.922Z,9772
2017-06-16T12:56:56.302Z,10168
2017-06-16T12:57:58.662Z,9872
2017-06-16T12:59:01.028Z,10668
2017-06-16T13:00:03.994Z,12128
2017-06-16T13:01:06.355Z,11788
2017-06-16T13:02:08.727Z,12148
2017-06-16T13:03:11.094Z,12240
2017-06-16T13:04:13.459Z,12032
2017-06-16T13:05:16.421Z,11760
2017-06-16T13:06:18.785Z,11668
2017-06-16T13:07:21.142Z,11220
2017-06-16T13:08:23.535Z,10052
2017-06-16T13:09:25.864Z,11044
2017-06-16T13:10:28.835Z,14520
2017-06-16T13:11:31.187Z,16288
2017-06-16T13:12:33.554Z,14624
2017-06-16T13:13:35.913Z,14308
2017-06-16T13:14:38.273Z,14364
2017-06-16T13:15:41.242Z,14568
2017-06-16T13:16:43.603Z,14428
2017-06-16T13:17:45.975Z,13816
2017-06-16T13:18:48.329Z,15904
2017-06-16T13:19:50.694Z,17184
2017-06-16T13:20:53.653Z,20448
2017-06-16T13:21:56.022Z,18720
2017-06-16T13:22:58.376Z,22240
2017-06-16T13:24:01.938Z,20544
2017-06-16T13:25:04.304Z,18080
2017-06-16T13:26:07.268Z,15532
2017-06-16T13:27:09.632Z,15408
2017-06-16T13:28:12.195Z,12364
2017-06-16T13:29:14.566Z,10808
2017-06-16T13:30:17.147Z,23712
2017-06-16T13:31:20.123Z,25792
2017-06-16T13:32:22.485Z,23424
2017-06-16T13:33:24.848Z,25856
2017-06-16T13:34:27.219Z,23872
2017-06-16T13:35:29.604Z,16220
2017-06-16T13:36:32.558Z,13820
2017-06-16T13:37:34.924Z,24384
2017-06-16T13:38:37.286Z,22688
2017-06-16T13:39:39.660Z,24192
2017-06-16T13:40:42.042Z,22368
2017-06-16T13:41:44.974Z,33344
2017-06-16T13:42:47.343Z,32512
2017-06-16T13:43:49.708Z,30400
2017-06-16T13:44:52.071Z,18688
2017-06-16T13:45:54.447Z,28704
2017-06-16T13:46:57.442Z,30176
2017-06-16T13:47:59.790Z,27840
2017-06-16T13:49:02.159Z,28544
2017-06-16T13:50:04.545Z,15648
2017-06-16T13:51:06.909Z,18784
2017-06-16T13:52:09.876Z,22880
2017-06-16T13:53:12.246Z,35872
2017-06-16T13:54:14.612Z,39136
2017-06-16T13:55:16.979Z,35616
2017-06-16T13:56:19.353Z,40288
2017-06-16T13:57:22.320Z,30592
2017-06-16T13:58:24.689Z,32544
2017-06-16T13:59:27.056Z,35072
2017-06-16T14:00:29.424Z,49920
2017-06-16T14:01:31.796Z,42976
2017-06-16T14:02:34.764Z,28256
2017-06-16T14:03:37.126Z,30816
2017-06-16T14:04:39.495Z,23904
2017-06-16T14:05:41.864Z,26368
2017-06-16T14:06:44.223Z,30400
2017-06-16T14:07:47.189Z,19168
2017-06-16T14:08:49.567Z,24096
2017-06-16T14:09:51.952Z,26944
2017-06-16T14:10:54.316Z,24960
2017-06-16T14:13:14.845Z,25792
2017-06-16T14:14:17.217Z,62976
2017-06-16T14:15:19.582Z,50112
2017-06-16T14:16:21.959Z,28992
2017-06-16T14:18:15.259Z,19968
2017-06-16T14:19:21.433Z,21216
2017-06-16T14:20:22.514Z,18272
2017-06-16T14:21:41.612Z,46080
2017-06-16T14:24:57.424Z,37120
2017-06-16T14:25:58.372Z,49568
2017-06-16T14:27:00.297Z,54272
2017-06-16T14:28:07.161Z,19456
2017-06-16T14:29:13.028Z,33696
2017-06-16T14:30:16.237Z,63904
2017-06-16T14:31:18.893Z,38304
2017-06-16T14:32:21.125Z,11656
2017-06-16T14:33:25.465Z,57248
2017-06-16T14:34:30.376Z,16504
2017-06-16T14:36:35.748Z,66176
2017-06-16T14:37:39.369Z,14932
2017-06-16T14:38:42.138Z,63968
2017-06-16T14:39:44.287Z,66080
2017-06-16T14:40:59.308Z,63136
2017-06-16T14:41:57.855Z,61280
2017-06-16T14:42:59.654Z,65728
2017-06-16T14:44:10.963Z,45024
2017-06-16T14:45:12.187Z,33568
2017-06-16T14:46:14.720Z,16796
2017-06-16T14:47:17.135Z,16808
2017-06-16T14:48:22.291Z,16976
2017-06-16T14:49:25.787Z,22560
2017-06-16T14:50:28.160Z,67392
2017-06-16T14:51:30.520Z,59296
2017-06-16T14:52:36.268Z,66016
2017-06-16T14:53:37.129Z,20256
2017-06-16T14:54:40.245Z,59584
2017-06-16T14:55:45.227Z,17768
2017-06-16T14:56:50.686Z,35808
2017-06-16T14:57:57.713Z,22560
2017-06-16T14:59:04.176Z,68480
2017-06-16T15:00:08.272Z,62496
2017-06-16T15:01:10.105Z,28576
2017-06-16T15:02:14.788Z,24608
2017-06-16T15:03:18.312Z,65088
2017-06-16T15:04:19.749Z,19776